createdAt,value
2019-02-06T00:01:08.544Z,100.65
2019-02-06T00:03:37.047Z,84.05
2019-02-06T00:06:06.283Z,97.02
2019-02-06T00:08:34.785Z,94.20
2019-02-06T00:11:03.488Z,95.77
2019-02-06T00:13:32.196Z,103.00
2019-02-06T00:16:00.962Z,101.20
2019-02-06T00:18:29.511Z,93.03
2019-02-06T00:20:58.087Z,102.97
2019-02-06T00:23:26.523Z,83.22
2019-02-06T00:25:55.113Z,96.28
2019-02-06T00:28:23.539Z,88.03
2019-02-06T00:30:52.362Z,102.12
2019-02-06T00:33:20.816Z,83.25
2019-02-06T00:35:49.246Z,88.55
2019-02-06T00:38:17.695Z,87.92
2019-02-06T00:40:46.203Z,90.22
2019-02-06T00:43:14.788Z,100.65
2019-02-06T00:45:43.590Z,90.45
2019-02-06T00:48:12.113Z,92.62
2019-02-06T00:50:40.550Z,93.10
2019-02-06T00:53:09.085Z,92.75
2019-02-06T00:55:37.518Z,101.72
2019-02-06T00:58:06.027Z,88.60
2019-02-06T01:00:34.630Z,93.05
2019-02-06T01:03:03.231Z,102.30
2019-02-06T01:05:38.468Z,103.40
2019-02-06T01:08:02.059Z,107.05
2019-02-06T01:10:30.508Z,102.45
2019-02-06T01:12:58.963Z,87.65
2019-02-06T01:15:27.565Z,83.65
2019-02-06T01:17:56.486Z,87.45
2019-02-06T01:20:24.995Z,103.50
2019-02-06T01:22:53.534Z,103.45
2019-02-06T01:25:21.974Z,95.62
2019-02-06T01:27:50.421Z,83.87
2019-02-06T01:30:25.081Z,99.13
2019-02-06T01:32:53.628Z,80.15
2019-02-06T01:35:22.090Z,116.08
2019-02-06T01:37:50.586Z,88.87
2019-02-06T01:40:20.683Z,112.28
2019-02-06T01:42:49.188Z,100.60
2019-02-06T01:45:19.630Z,109.00
2019-02-06T01:47:48.140Z,95.75
2019-02-06T01:50:18.775Z,99.95
2019-02-06T01:52:47.457Z,109.20
2019-02-06T01:55:16.417Z,99.65
2019-02-06T01:57:44.918Z,100.75
2019-02-06T02:00:16.314Z,119.65
2019-02-06T02:02:44.738Z,96.30
2019-02-06T02:05:15.498Z,91.85
2019-02-06T02:07:44.166Z,122.95
2019-02-06T02:10:13.144Z,92.53
2019-02-06T02:12:41.678Z,98.20
2019-02-06T02:15:13.435Z,104.40
2019-02-06T02:17:41.930Z,112.62
2019-02-06T02:20:13.956Z,100.38
2019-02-06T02:22:42.622Z,93.27
2019-02-06T02:25:11.287Z,90.17
2019-02-06T02:27:39.805Z,106.37
2019-02-06T02:30:11.332Z,93.15
2019-02-06T02:32:39.770Z,88.67
2019-02-06T02:35:08.715Z,80.90
2019-02-06T02:37:37.320Z,83.55
2019-02-06T02:40:08.752Z,90.25
2019-02-06T02:42:37.336Z,85.72
2019-02-06T02:45:12.552Z,96.37
2019-02-06T02:47:41.028Z,90.57
2019-02-06T02:50:11.014Z,100.50
2019-02-06T02:52:39.575Z,93.33
2019-02-06T02:55:12.629Z,83.67
2019-02-06T02:57:41.449Z,97.35
2019-02-06T03:00:13.943Z,94.20
2019-02-06T03:02:59.436Z,80.15
2019-02-06T03:05:29.575Z,87.50
2019-02-06T03:07:58.029Z,87.47
2019-02-06T03:10:26.447Z,87.85
2019-02-06T03:12:54.932Z,88.60
2019-02-06T03:15:23.711Z,89.95
2019-02-06T03:17:52.271Z,81.45
2019-02-06T03:20:20.727Z,96.78
2019-02-06T03:22:49.251Z,82.05
2019-02-06T03:25:17.676Z,90.22
2019-02-06T03:27:46.219Z,105.22
2019-02-06T03:30:18.801Z,98.67
2019-02-06T03:32:49.106Z,84.80
2019-02-06T03:35:17.956Z,88.15
2019-02-06T03:37:46.426Z,82.67
2019-02-06T03:40:17.121Z,90.57
2019-02-06T03:42:45.761Z,97.42
2019-02-06T03:45:14.823Z,99.60
2019-02-06T03:47:43.328Z,99.65
2019-02-06T03:50:17.347Z,91.95
2019-02-06T03:52:45.777Z,89.07
2019-02-06T03:55:14.592Z,96.87
2019-02-06T03:57:43.354Z,108.90
2019-02-06T04:00:19.953Z,99.42
2019-02-06T04:02:48.506Z,107.83
2019-02-06T04:05:17.005Z,97.97
2019-02-06T04:07:45.507Z,88.33
2019-02-06T04:10:18.895Z,104.70
2019-02-06T04:12:47.420Z,101.22
2019-02-06T04:15:16.584Z,89.75
2019-02-06T04:17:45.325Z,105.78
2019-02-06T04:20:15.128Z,93.80
2019-02-06T04:22:43.862Z,84.20
2019-02-06T04:25:14.861Z,96.57
2019-02-06T04:27:43.495Z,114.82
2019-02-06T04:30:14.866Z,94.60
2019-02-06T04:32:43.551Z,87.88
2019-02-06T04:35:13.838Z,93.12
2019-02-06T04:37:42.736Z,80.77
2019-02-06T04:40:18.798Z,79.05
2019-02-06T04:42:47.782Z,76.42
2019-02-06T04:45:19.877Z,87.90
2019-02-06T04:47:48.427Z,84.37
2019-02-06T04:50:17.888Z,76.25
2019-02-06T04:52:46.581Z,79.40
2019-02-06T04:55:17.036Z,67.78
2019-02-06T04:57:46.265Z,87.97
2019-02-06T05:00:26.299Z,83.70
2019-02-06T05:02:54.887Z,87.10
2019-02-06T05:05:23.602Z,79.85
2019-02-06T05:07:52.172Z,87.05
2019-02-06T05:10:20.600Z,83.75
2019-02-06T05:12:49.384Z,93.65
2019-02-06T05:15:18.894Z,85.42
2019-02-06T05:17:47.330Z,96.92
2019-02-06T05:20:31.118Z,85.47
2019-02-06T05:22:59.632Z,88.30
2019-02-06T05:25:28.430Z,87.25
2019-02-06T05:27:56.946Z,90.72
2019-02-06T05:30:25.450Z,81.92
2019-02-06T05:32:53.921Z,80.25
2019-02-06T05:35:22.419Z,84.52
2019-02-06T05:37:51.014Z,97.53
2019-02-06T05:40:19.518Z,87.17
2019-02-06T05:42:48.055Z,114.72
2019-02-06T05:45:17.630Z,90.12
2019-02-06T05:47:46.079Z,92.00
2019-02-06T05:50:16.844Z,102.35
2019-02-06T05:52:46.234Z,121.42
2019-02-06T05:55:16.523Z,103.35
2019-02-06T05:57:45.583Z,108.05
2019-02-06T06:00:21.059Z,107.85
2019-02-06T06:02:49.507Z,96.28
2019-02-06T06:05:18.007Z,108.92
2019-02-06T06:07:46.475Z,104.90
2019-02-06T06:10:17.240Z,95.80
2019-02-06T06:12:46.299Z,96.20
2019-02-06T06:15:17.670Z,106.15
2019-02-06T06:17:46.132Z,92.33
2019-02-06T06:20:17.263Z,84.22
2019-02-06T06:22:45.883Z,91.78
2019-02-06T06:25:16.440Z,97.42
2019-02-06T06:27:45.340Z,92.27
2019-02-06T06:30:18.978Z,93.50
2019-02-06T06:32:47.779Z,94.80
2019-02-06T06:35:16.335Z,83.15
2019-02-06T06:37:57.099Z,82.05
2019-02-06T06:40:22.755Z,91.08
2019-02-06T06:42:51.386Z,87.22
2019-02-06T06:45:22.279Z,88.42
2019-02-06T06:47:50.870Z,95.67
2019-02-06T06:50:21.482Z,100.35
2019-02-06T06:52:49.911Z,96.10
2019-02-06T06:55:18.433Z,99.85
2019-02-06T06:57:47.002Z,105.25
2019-02-06T07:00:23.726Z,89.25
2019-02-06T07:02:52.146Z,102.67
2019-02-06T07:05:21.434Z,97.72
2019-02-06T07:07:51.015Z,109.32
2019-02-06T07:10:20.386Z,88.97
2019-02-06T07:12:48.827Z,81.60
2019-02-06T07:15:23.014Z,84.70
2019-02-06T07:17:51.572Z,81.85
2019-02-06T07:20:20.838Z,77.90
2019-02-06T07:22:49.479Z,86.63
2019-02-06T07:25:19.691Z,93.50
2019-02-06T07:27:48.177Z,88.80
2019-02-06T07:30:28.533Z,78.12
2019-02-06T07:32:57.383Z,80.22
2019-02-06T07:35:25.831Z,78.37
2019-02-06T07:37:54.264Z,93.17
2019-02-06T07:40:22.884Z,87.70
2019-02-06T07:42:51.575Z,82.60
2019-02-06T07:45:20.558Z,80.57
2019-02-06T07:47:49.314Z,74.12
2019-02-06T07:50:20.568Z,87.20
2019-02-06T07:52:49.014Z,80.20
2019-02-06T07:55:17.878Z,80.60
2019-02-06T07:57:46.381Z,84.85
2019-02-06T08:00:15.201Z,68.72
2019-02-06T08:02:43.791Z,95.83
2019-02-06T08:05:22.333Z,79.35
2019-02-06T08:07:51.454Z,81.60
2019-02-06T08:10:22.587Z,70.30
2019-02-06T08:12:52.596Z,78.92
2019-02-06T08:15:21.376Z,79.65
2019-02-06T08:17:49.892Z,87.45
2019-02-06T08:20:23.727Z,86.90
2019-02-06T08:22:52.881Z,77.62
2019-02-06T08:25:23.148Z,89.52
2019-02-06T08:27:51.666Z,75.60
2019-02-06T08:30:25.590Z,76.75
2019-02-06T08:32:54.471Z,72.17
2019-02-06T08:35:23.069Z,72.17
2019-02-06T08:37:51.909Z,88.10
2019-02-06T08:40:23.731Z,92.33
2019-02-06T08:42:52.195Z,95.55
2019-02-06T08:45:20.963Z,75.25
2019-02-06T08:47:49.583Z,80.92
2019-02-06T08:50:20.507Z,86.95
2019-02-06T08:52:49.786Z,71.97
2019-02-06T08:55:20.915Z,75.30
2019-02-06T08:57:49.538Z,91.78
2019-02-06T09:00:26.868Z,94.55
2019-02-06T09:02:55.533Z,73.05
2019-02-06T09:05:24.014Z,85.62
2019-02-06T09:07:52.444Z,81.30
2019-02-06T09:10:23.231Z,86.92
2019-02-06T09:12:52.500Z,79.32
2019-02-06T09:15:21.098Z,80.15
2019-02-06T09:17:49.626Z,88.17
2019-02-06T09:20:20.827Z,81.17
2019-02-06T09:22:49.331Z,92.12
2019-02-06T09:25:20.192Z,73.67
2019-02-06T09:27:48.708Z,82.27
2019-02-06T09:30:22.522Z,66.42
2019-02-06T09:32:50.950Z,95.60
2019-02-06T09:35:19.557Z,68.70
2019-02-06T09:37:47.987Z,72.00
2019-02-06T09:40:21.829Z,66.95
2019-02-06T09:42:50.265Z,63.75
2019-02-06T09:45:19.059Z,75.30
2019-02-06T09:47:47.511Z,68.90
2019-02-06T09:50:21.972Z,66.25
2019-02-06T09:52:50.556Z,62.35
2019-02-06T09:55:20.626Z,70.10
2019-02-06T09:57:49.254Z,70.78
2019-02-06T10:00:26.441Z,66.60
2019-02-06T10:02:54.869Z,65.62
2019-02-06T10:05:23.692Z,71.47
2019-02-06T10:07:52.145Z,68.37
2019-02-06T10:10:22.814Z,66.85
2019-02-06T10:12:51.490Z,72.32
2019-02-06T10:15:33.456Z,71.62
2019-02-06T10:18:02.428Z,64.80
2019-02-06T10:20:39.603Z,63.02
2019-02-06T10:23:08.594Z,78.85
2019-02-06T10:25:37.976Z,65.50
2019-02-06T10:28:06.662Z,67.10
2019-02-06T10:30:37.630Z,70.42
2019-02-06T10:33:06.740Z,69.70
2019-02-06T10:35:35.515Z,58.38
2019-02-06T10:38:04.797Z,67.75
2019-02-06T10:40:34.772Z,67.00
2019-02-06T10:43:03.363Z,66.30
2019-02-06T10:45:31.926Z,65.17
2019-02-06T10:48:00.370Z,66.90
2019-02-06T10:50:40.455Z,64.53
2019-02-06T10:53:09.740Z,66.90
2019-02-06T10:55:38.310Z,60.43
2019-02-06T10:58:07.511Z,62.48
2019-02-06T11:00:46.043Z,69.82
2019-02-06T11:03:14.662Z,54.23
2019-02-06T11:05:43.270Z,69.07
2019-02-06T11:08:11.978Z,64.37
2019-02-06T11:10:40.419Z,65.05
2019-02-06T11:13:09.082Z,57.25
2019-02-06T11:15:37.866Z,63.33
2019-02-06T11:18:06.433Z,60.00
2019-02-06T11:20:37.319Z,68.42
2019-02-06T11:23:06.576Z,58.98
2019-02-06T11:25:36.077Z,64.22
2019-02-06T11:28:05.542Z,69.05
2019-02-06T11:30:39.096Z,60.20
2019-02-06T11:33:07.964Z,60.85
2019-02-06T11:35:36.580Z,56.48
2019-02-06T11:38:06.511Z,57.10
2019-02-06T11:40:35.283Z,57.55
2019-02-06T11:43:04.513Z,61.18
2019-02-06T11:45:34.366Z,55.15
2019-02-06T11:48:02.811Z,56.10
2019-02-06T11:50:35.462Z,61.05
2019-02-06T11:53:04.457Z,54.63
2019-02-06T11:55:33.532Z,53.83
2019-02-06T11:58:02.027Z,53.40
2019-02-06T12:00:44.370Z,56.92
2019-02-06T12:03:13.154Z,54.23
2019-02-06T12:05:41.725Z,55.03
2019-02-06T12:08:12.509Z,61.53
2019-02-06T12:10:40.676Z,61.77
2019-02-06T12:13:09.617Z,61.18
2019-02-06T12:15:38.224Z,58.60
2019-02-06T12:18:07.293Z,50.52
2019-02-06T12:20:36.259Z,51.10
2019-02-06T12:23:05.270Z,48.42
2019-02-06T12:25:34.676Z,50.80
2019-02-06T12:28:05.179Z,64.72
2019-02-06T12:30:39.003Z,51.05
2019-02-06T12:33:07.629Z,50.48
2019-02-06T12:35:36.106Z,52.80
2019-02-06T12:38:05.286Z,52.93
2019-02-06T12:40:33.856Z,51.85
2019-02-06T12:43:02.363Z,48.33
2019-02-06T12:45:31.183Z,56.33
2019-02-06T12:47:59.698Z,60.83
2019-02-06T12:50:28.367Z,59.03
2019-02-06T12:52:57.679Z,52.43
2019-02-06T12:55:35.231Z,53.23
2019-02-06T12:58:04.540Z,55.00
2019-02-06T13:00:35.783Z,63.30
2019-02-06T13:03:04.572Z,56.88
2019-02-06T13:05:33.243Z,57.25
2019-02-06T13:08:01.863Z,58.65
2019-02-06T13:10:34.524Z,57.67
2019-02-06T13:13:00.727Z,59.58
2019-02-06T13:15:29.312Z,47.55
2019-02-06T13:17:57.938Z,58.02
2019-02-06T13:20:34.612Z,59.55
2019-02-06T13:23:03.311Z,59.93
2019-02-06T13:25:31.831Z,63.63
2019-02-06T13:28:00.690Z,56.20
2019-02-06T13:30:35.840Z,59.35
2019-02-06T13:33:06.101Z,54.77
2019-02-06T13:35:34.621Z,60.15
2019-02-06T13:38:03.126Z,72.35
2019-02-06T13:40:31.572Z,60.43
2019-02-06T13:43:00.255Z,63.45
2019-02-06T13:45:34.645Z,63.63
2019-02-06T13:48:03.217Z,65.65
2019-02-06T13:50:31.898Z,62.43
2019-02-06T13:53:00.480Z,66.07
2019-02-06T13:55:29.272Z,62.10
2019-02-06T13:57:57.863Z,54.15
2019-02-06T14:00:32.397Z,67.30
2019-02-06T14:03:00.966Z,63.00
2019-02-06T14:05:30.935Z,64.25
2019-02-06T14:08:01.815Z,65.95
2019-02-06T14:10:31.906Z,59.95
2019-02-06T14:13:01.188Z,66.07
2019-02-06T14:15:35.986Z,67.90
2019-02-06T14:18:04.799Z,61.15
2019-02-06T14:20:33.463Z,67.47
2019-02-06T14:23:11.415Z,60.80
2019-02-06T14:25:46.623Z,63.45
2019-02-06T14:28:32.464Z,63.30
2019-02-06T14:31:06.659Z,62.17
2019-02-06T14:34:02.140Z,69.85
2019-02-06T14:36:36.231Z,60.70
2019-02-06T14:39:13.346Z,67.75
2019-02-06T14:41:48.168Z,64.22
2019-02-06T14:44:34.527Z,56.13
2019-02-06T14:47:11.840Z,64.20
2019-02-06T14:49:49.041Z,68.20
2019-02-06T14:52:23.470Z,65.35
2019-02-06T14:54:57.915Z,61.02
2019-02-06T14:57:35.318Z,67.17
2019-02-06T15:00:19.105Z,91.63
2019-02-06T15:03:05.899Z,58.42
2019-02-06T15:05:43.021Z,58.58
2019-02-06T15:08:17.249Z,71.40
2019-02-06T15:10:48.761Z,59.15
2019-02-06T15:13:23.234Z,69.87
2019-02-06T15:16:00.737Z,59.98
2019-02-06T15:18:44.360Z,63.35
2019-02-06T15:21:27.919Z,61.60
2019-02-06T15:24:17.247Z,61.48
2019-02-06T15:27:21.801Z,61.05
2019-02-06T15:30:02.367Z,70.32
2019-02-06T15:32:39.571Z,74.10
2019-02-06T15:35:42.770Z,62.00
2019-02-06T15:38:14.361Z,60.90
2019-02-06T15:40:54.836Z,71.15
2019-02-06T15:43:28.847Z,70.32
2019-02-06T15:46:33.886Z,57.53
2019-02-06T15:49:20.233Z,65.83
2019-02-06T15:51:54.438Z,74.62
2019-02-06T15:54:50.094Z,61.00
2019-02-06T15:57:42.480Z,69.27
2019-02-06T16:00:14.204Z,75.97
2019-02-06T16:02:48.838Z,65.22
2019-02-06T16:05:36.802Z,69.58
2019-02-06T16:08:29.227Z,72.45
2019-02-06T16:11:06.356Z,58.83
2019-02-06T16:14:06.467Z,85.38
2019-02-06T16:16:49.642Z,65.72
2019-02-06T16:19:40.867Z,64.03
2019-02-06T16:22:24.333Z,77.53
2019-02-06T16:24:58.818Z,59.88
2019-02-06T16:27:32.984Z,71.50
2019-02-06T16:30:13.412Z,58.45
2019-02-06T16:33:00.072Z,76.60
2019-02-06T16:36:00.236Z,74.60
2019-02-06T16:38:43.267Z,70.70
2019-02-06T16:41:36.053Z,63.30
2019-02-06T16:44:07.634Z,62.43
2019-02-06T16:47:03.271Z,77.03
2019-02-06T16:49:49.338Z,65.87
2019-02-06T16:52:27.068Z,78.83
2019-02-06T16:55:21.474Z,65.20
2019-02-06T16:57:59.028Z,74.00
2019-02-06T17:00:45.812Z,70.67
2019-02-06T17:03:26.359Z,70.90
2019-02-06T17:06:03.623Z,67.95
2019-02-06T17:08:40.983Z,74.80
2019-02-06T17:11:15.445Z,68.42
2019-02-06T17:14:06.585Z,69.70
2019-02-06T17:16:59.407Z,73.87
2019-02-06T17:19:36.591Z,64.20
2019-02-06T17:22:30.903Z,64.20
2019-02-06T17:25:08.151Z,65.03
2019-02-06T17:27:57.826Z,73.83
2019-02-06T17:30:47.325Z,75.47
2019-02-06T17:33:53.640Z,63.60
2019-02-06T17:36:40.303Z,71.55
2019-02-06T17:39:43.720Z,67.62
2019-02-06T17:42:30.217Z,67.70
2019-02-06T17:45:13.931Z,63.05
2019-02-06T17:47:54.386Z,70.05
2019-02-06T17:50:47.026Z,71.62
2019-02-06T17:53:35.116Z,76.95
2019-02-06T17:56:03.721Z,78.52
2019-02-06T17:58:34.811Z,71.40
2019-02-06T18:01:12.178Z,66.90
2019-02-06T18:03:43.264Z,66.67
2019-02-06T18:06:12.634Z,76.30
2019-02-06T18:08:41.108Z,77.85
2019-02-06T18:11:10.284Z,78.72
2019-02-06T18:13:38.765Z,62.80
2019-02-06T18:16:07.730Z,75.92
2019-02-06T18:18:36.187Z,74.37
2019-02-06T18:21:05.139Z,83.52
2019-02-06T18:23:33.837Z,88.37
2019-02-06T18:26:02.848Z,79.47
2019-02-06T18:28:31.368Z,80.83
2019-02-06T18:30:59.928Z,74.50
2019-02-06T18:33:30.075Z,85.25
2019-02-06T18:35:58.643Z,81.60
2019-02-06T18:38:27.161Z,82.82
2019-02-06T18:40:55.796Z,88.00
2019-02-06T18:43:25.552Z,84.55
2019-02-06T18:45:54.048Z,90.03
2019-02-06T18:48:24.502Z,79.45
2019-02-06T18:50:54.057Z,84.45
2019-02-06T18:53:22.619Z,92.22
2019-02-06T18:55:51.424Z,85.65
2019-02-06T18:58:20.120Z,77.40
2019-02-06T19:00:48.701Z,86.75
2019-02-06T19:03:23.469Z,73.40
2019-02-06T19:05:51.967Z,90.67
2019-02-06T19:08:20.443Z,89.83
2019-02-06T19:10:49.615Z,92.00
2019-02-06T19:13:18.247Z,96.53
2019-02-06T19:15:56.172Z,91.55
2019-02-06T19:18:17.743Z,87.27
2019-02-06T19:20:46.434Z,104.55
2019-02-06T19:23:14.846Z,87.95
2019-02-06T19:25:44.344Z,90.75
2019-02-06T19:28:13.158Z,102.17
2019-02-06T19:30:43.672Z,82.57
2019-02-06T19:33:12.199Z,78.07
2019-02-06T19:35:40.665Z,80.03
2019-02-06T19:38:09.182Z,93.03
2019-02-06T19:40:38.196Z,85.22
2019-02-06T19:43:06.800Z,125.58
2019-02-06T19:45:35.777Z,82.27
2019-02-06T19:48:15.207Z,92.80
2019-02-06T19:50:38.371Z,106.05
2019-02-06T19:53:08.422Z,85.45
2019-02-06T19:55:37.055Z,77.30
2019-02-06T19:58:07.793Z,96.70
2019-02-06T20:00:37.935Z,93.00
2019-02-06T20:03:08.372Z,82.37
2019-02-06T20:05:37.259Z,78.33
2019-02-06T20:08:07.573Z,88.80
2019-02-06T20:10:42.002Z,80.83
2019-02-06T20:13:14.362Z,81.05
2019-02-06T20:15:40.812Z,88.00
2019-02-06T20:18:09.725Z,84.13
2019-02-06T20:20:38.150Z,83.10
2019-02-06T20:23:06.838Z,89.17
2019-02-06T20:25:35.323Z,73.15
2019-02-06T20:28:04.244Z,78.65
2019-02-06T20:30:33.479Z,71.97
2019-02-06T20:33:02.105Z,82.10
2019-02-06T20:35:30.636Z,89.75
2019-02-06T20:37:59.653Z,82.57
2019-02-06T20:40:32.879Z,94.75
2019-02-06T20:43:01.483Z,83.52
2019-02-06T20:45:31.411Z,80.65
2019-02-06T20:48:00.182Z,89.07
2019-02-06T20:50:36.010Z,78.62
2019-02-06T20:53:05.469Z,82.65
2019-02-06T20:55:34.106Z,86.75
2019-02-06T20:58:02.883Z,86.60
2019-02-06T21:00:34.556Z,84.85
2019-02-06T21:03:03.088Z,80.42
2019-02-06T21:05:31.532Z,81.05
2019-02-06T21:08:00.531Z,77.72
2019-02-06T21:10:36.481Z,69.92
2019-02-06T21:13:05.950Z,84.50
2019-02-06T21:15:34.782Z,68.97
2019-02-06T21:18:03.425Z,75.92
2019-02-06T21:20:32.042Z,70.95
2019-02-06T21:23:01.764Z,68.35
2019-02-06T21:25:30.291Z,71.07
2019-02-06T21:27:58.792Z,67.45
2019-02-06T21:30:32.651Z,62.23
2019-02-06T21:33:01.227Z,73.92
2019-02-06T21:35:29.686Z,63.60
2019-02-06T21:37:58.602Z,70.47
2019-02-06T21:40:29.387Z,79.58
2019-02-06T21:42:57.813Z,61.90
2019-02-06T21:45:26.398Z,64.72
2019-02-06T21:47:54.886Z,64.42
2019-02-06T21:50:24.495Z,68.47
2019-02-06T21:52:53.566Z,64.10
2019-02-06T21:55:23.440Z,73.37
2019-02-06T21:57:52.087Z,68.67
2019-02-06T22:00:26.411Z,74.40
2019-02-06T22:02:55.082Z,71.57
2019-02-06T22:05:23.595Z,77.92
2019-02-06T22:07:52.504Z,74.72
2019-02-06T22:10:24.182Z,71.30
2019-02-06T22:12:52.777Z,74.27
2019-02-06T22:15:29.310Z,70.90
2019-02-06T22:17:57.937Z,73.57
2019-02-06T22:20:26.822Z,67.50
2019-02-06T22:22:55.488Z,75.50
2019-02-06T22:25:24.147Z,68.70
2019-02-06T22:27:52.708Z,69.32
2019-02-06T22:30:30.087Z,70.70
2019-02-06T22:32:58.780Z,58.80
2019-02-06T22:35:27.714Z,60.48
2019-02-06T22:37:56.239Z,60.92
2019-02-06T22:40:26.547Z,66.02
2019-02-06T22:42:55.083Z,71.42
2019-02-06T22:45:28.206Z,72.05
2019-02-06T22:47:56.806Z,58.75
2019-02-06T22:50:27.771Z,72.27
2019-02-06T22:52:56.487Z,66.62
2019-02-06T22:55:25.181Z,76.35
2019-02-06T22:57:53.861Z,61.88
2019-02-06T23:00:29.854Z,69.65
2019-02-06T23:02:58.736Z,69.10
2019-02-06T23:05:27.176Z,70.22
2019-02-06T23:07:55.672Z,71.45
2019-02-06T23:10:24.208Z,77.08
2019-02-06T23:12:52.650Z,83.58
2019-02-06T23:15:21.158Z,70.20
2019-02-06T23:17:49.586Z,70.22
2019-02-06T23:20:18.184Z,74.75
2019-02-06T23:22:46.627Z,65.47
2019-02-06T23:25:15.074Z,64.67
2019-02-06T23:27:43.516Z,65.55
2019-02-06T23:30:14.672Z,72.45
2019-02-06T23:32:43.479Z,78.50
2019-02-06T23:35:12.162Z,62.95
2019-02-06T23:37:40.600Z,62.88
2019-02-06T23:40:12.051Z,68.45
2019-02-06T23:42:40.476Z,58.17
2019-02-06T23:45:10.469Z,68.57
2019-02-06T23:47:39.387Z,69.45
2019-02-06T23:50:16.010Z,65.25
2019-02-06T23:52:44.434Z,66.28
2019-02-06T23:55:13.130Z,65.40
2019-02-06T23:57:41.603Z,60.58
